sensor_id;sensor_type;location;lat;lon;timestamp;P1;durP1;ratioP1;P2;durP2;ratioP2
32321;SDS011;61553;48.994;8.940;2024-02-21T00:00:46;10.27;;;4.95;;
32321;SDS011;61553;48.994;8.940;2024-02-21T00:03:12;16.30;;;5.18;;
32321;SDS011;61553;48.994;8.940;2024-02-21T00:05:38;11.05;;;5.07;;
32321;SDS011;61553;48.994;8.940;2024-02-21T00:08:03;14.10;;;4.80;;
32321;SDS011;61553;48.994;8.940;2024-02-21T00:10:30;11.07;;;5.57;;
32321;SDS011;61553;48.994;8.940;2024-02-21T00:12:57;11.88;;;4.15;;
32321;SDS011;61553;48.994;8.940;2024-02-21T00:15:24;13.70;;;5.15;;
32321;SDS011;61553;48.994;8.940;2024-02-21T00:17:50;14.80;;;4.78;;
32321;SDS011;61553;48.994;8.940;2024-02-21T00:20:16;11.50;;;5.10;;
32321;SDS011;61553;48.994;8.940;2024-02-21T00:22:42;11.25;;;5.63;;
32321;SDS011;61553;48.994;8.940;2024-02-21T00:25:08;11.65;;;4.78;;
32321;SDS011;61553;48.994;8.940;2024-02-21T00:27:34;11.27;;;4.70;;
32321;SDS011;61553;48.994;8.940;2024-02-21T00:29:59;16.58;;;5.63;;
32321;SDS011;61553;48.994;8.940;2024-02-21T00:32:25;19.10;;;5.70;;
32321;SDS011;61553;48.994;8.940;2024-02-21T00:34:51;13.32;;;5.55;;
32321;SDS011;61553;48.994;8.940;2024-02-21T00:37:17;15.15;;;5.28;;
32321;SDS011;61553;48.994;8.940;2024-02-21T00:39:42;10.10;;;4.38;;
32321;SDS011;61553;48.994;8.940;2024-02-21T00:42:08;11.40;;;4.13;;
32321;SDS011;61553;48.994;8.940;2024-02-21T00:44:34;13.68;;;5.13;;
32321;SDS011;61553;48.994;8.940;2024-02-21T00:46:59;13.13;;;5.20;;
32321;SDS011;61553;48.994;8.940;2024-02-21T00:49:25;11.82;;;4.80;;
32321;SDS011;61553;48.994;8.940;2024-02-21T00:51:51;8.75;;;5.15;;
32321;SDS011;61553;48.994;8.940;2024-02-21T00:54:16;11.05;;;4.78;;
32321;SDS011;61553;48.994;8.940;2024-02-21T00:56:42;14.95;;;5.07;;
32321;SDS011;61553;48.994;8.940;2024-02-21T00:59:08;13.57;;;4.30;;
32321;SDS011;61553;48.994;8.940;2024-02-21T01:01:33;9.05;;;4.57;;
32321;SDS011;61553;48.994;8.940;2024-02-21T01:03:59;9.30;;;4.30;;
32321;SDS011;61553;48.994;8.940;2024-02-21T01:06:25;11.05;;;4.25;;
32321;SDS011;61553;48.994;8.940;2024-02-21T01:08:51;10.10;;;4.57;;
32321;SDS011;61553;48.994;8.940;2024-02-21T01:11:17;9.32;;;4.47;;
32321;SDS011;61553;48.994;8.940;2024-02-21T01:13:42;15.20;;;5.65;;
32321;SDS011;61553;48.994;8.940;2024-02-21T01:16:09;10.15;;;4.68;;
32321;SDS011;61553;48.994;8.940;2024-02-21T01:18:36;9.73;;;4.60;;
32321;SDS011;61553;48.994;8.940;2024-02-21T01:21:02;14.63;;;5.05;;
32321;SDS011;61553;48.994;8.940;2024-02-21T01:23:31;10.38;;;4.57;;
32321;SDS011;61553;48.994;8.940;2024-02-21T01:25:58;8.70;;;4.70;;
32321;SDS011;61553;48.994;8.940;2024-02-21T01:28:23;13.23;;;5.35;;
32321;SDS011;61553;48.994;8.940;2024-02-21T01:30:49;12.85;;;4.90;;
32321;SDS011;61553;48.994;8.940;2024-02-21T01:33:14;15.55;;;5.45;;
32321;SDS011;61553;48.994;8.940;2024-02-21T01:35:40;14.18;;;5.50;;
32321;SDS011;61553;48.994;8.940;2024-02-21T01:38:06;11.30;;;5.10;;
32321;SDS011;61553;48.994;8.940;2024-02-21T01:40:31;12.07;;;5.43;;
32321;SDS011;61553;48.994;8.940;2024-02-21T01:42:57;12.68;;;5.78;;
32321;SDS011;61553;48.994;8.940;2024-02-21T01:45:22;10.68;;;5.50;;
32321;SDS011;61553;48.994;8.940;2024-02-21T01:47:48;15.73;;;5.82;;
32321;SDS011;61553;48.994;8.940;2024-02-21T01:50:15;11.80;;;5.72;;
32321;SDS011;61553;48.994;8.940;2024-02-21T01:52:42;14.43;;;5.65;;
32321;SDS011;61553;48.994;8.940;2024-02-21T01:55:10;11.82;;;5.18;;
32321;SDS011;61553;48.994;8.940;2024-02-21T01:57:38;13.98;;;5.65;;
32321;SDS011;61553;48.994;8.940;2024-02-21T02:00:05;10.90;;;5.22;;
32321;SDS011;61553;48.994;8.940;2024-02-21T02:02:31;14.68;;;5.97;;
32321;SDS011;61553;48.994;8.940;2024-02-21T02:04:57;16.55;;;5.45;;
32321;SDS011;61553;48.994;8.940;2024-02-21T02:07:24;15.48;;;5.78;;
32321;SDS011;61553;48.994;8.940;2024-02-21T02:09:49;17.15;;;5.90;;
32321;SDS011;61553;48.994;8.940;2024-02-21T02:12:15;12.93;;;5.35;;
32321;SDS011;61553;48.994;8.940;2024-02-21T02:14:41;14.82;;;5.38;;
32321;SDS011;61553;48.994;8.940;2024-02-21T02:17:06;15.10;;;4.95;;
32321;SDS011;61553;48.994;8.940;2024-02-21T02:19:34;12.77;;;4.85;;
32321;SDS011;61553;48.994;8.940;2024-02-21T02:22:01;13.18;;;4.50;;
32321;SDS011;61553;48.994;8.940;2024-02-21T02:24:36;11.07;;;4.35;;
32321;SDS011;61553;48.994;8.940;2024-02-21T02:27:01;12.80;;;4.97;;
32321;SDS011;61553;48.994;8.940;2024-02-21T02:29:27;13.68;;;4.43;;
32321;SDS011;61553;48.994;8.940;2024-02-21T02:31:53;10.88;;;4.70;;
32321;SDS011;61553;48.994;8.940;2024-02-21T02:34:18;13.73;;;4.53;;
32321;SDS011;61553;48.994;8.940;2024-02-21T02:36:44;16.45;;;4.30;;
32321;SDS011;61553;48.994;8.940;2024-02-21T02:39:10;10.68;;;4.45;;
32321;SDS011;61553;48.994;8.940;2024-02-21T02:41:36;9.23;;;4.90;;
32321;SDS011;61553;48.994;8.940;2024-02-21T02:44:01;12.07;;;5.47;;
32321;SDS011;61553;48.994;8.940;2024-02-21T02:46:27;7.80;;;4.13;;
32321;SDS011;61553;48.994;8.940;2024-02-21T02:48:52;10.93;;;4.38;;
32321;SDS011;61553;48.994;8.940;2024-02-21T02:51:18;13.07;;;4.43;;
32321;SDS011;61553;48.994;8.940;2024-02-21T02:53:44;12.13;;;4.40;;
32321;SDS011;61553;48.994;8.940;2024-02-21T02:56:16;7.60;;;3.85;;
32321;SDS011;61553;48.994;8.940;2024-02-21T02:58:42;8.77;;;4.45;;
32321;SDS011;61553;48.994;8.940;2024-02-21T03:01:08;13.00;;;3.95;;
32321;SDS011;61553;48.994;8.940;2024-02-21T03:03:34;12.30;;;5.40;;
32321;SDS011;61553;48.994;8.940;2024-02-21T03:06:00;17.27;;;5.35;;
32321;SDS011;61553;48.994;8.940;2024-02-21T03:08:25;10.40;;;4.65;;
32321;SDS011;61553;48.994;8.940;2024-02-21T03:10:51;10.70;;;4.45;;
32321;SDS011;61553;48.994;8.940;2024-02-21T03:13:17;9.70;;;4.22;;
32321;SDS011;61553;48.994;8.940;2024-02-21T03:15:42;14.73;;;4.38;;
32321;SDS011;61553;48.994;8.940;2024-02-21T03:18:08;10.85;;;4.40;;
32321;SDS011;61553;48.994;8.940;2024-02-21T03:20:33;13.40;;;4.63;;
32321;SDS011;61553;48.994;8.940;2024-02-21T03:22:59;9.88;;;3.72;;
32321;SDS011;61553;48.994;8.940;2024-02-21T03:25:24;12.73;;;4.32;;
32321;SDS011;61553;48.994;8.940;2024-02-21T03:27:50;10.52;;;3.92;;
32321;SDS011;61553;48.994;8.940;2024-02-21T03:30:16;9.55;;;4.22;;
32321;SDS011;61553;48.994;8.940;2024-02-21T03:32:42;11.95;;;4.38;;
32321;SDS011;61553;48.994;8.940;2024-02-21T03:35:08;9.65;;;4.35;;
32321;SDS011;61553;48.994;8.940;2024-02-21T03:37:33;8.77;;;4.32;;
32321;SDS011;61553;48.994;8.940;2024-02-21T03:39:59;10.18;;;4.22;;
32321;SDS011;61553;48.994;8.940;2024-02-21T03:42:25;13.68;;;4.40;;
32321;SDS011;61553;48.994;8.940;2024-02-21T03:44:50;12.88;;;4.85;;
32321;SDS011;61553;48.994;8.940;2024-02-21T03:47:16;11.68;;;5.13;;
32321;SDS011;61553;48.994;8.940;2024-02-21T03:49:41;15.35;;;4.47;;
32321;SDS011;61553;48.994;8.940;2024-02-21T03:52:07;14.07;;;4.65;;
32321;SDS011;61553;48.994;8.940;2024-02-21T03:54:34;11.38;;;4.72;;
32321;SDS011;61553;48.994;8.940;2024-02-21T03:56:59;12.63;;;3.83;;
32321;SDS011;61553;48.994;8.940;2024-02-21T03:59:25;13.63;;;4.22;;
32321;SDS011;61553;48.994;8.940;2024-02-21T04:01:53;10.75;;;4.30;;
32321;SDS011;61553;48.994;8.940;2024-02-21T04:04:19;22.38;;;7.88;;
32321;SDS011;61553;48.994;8.940;2024-02-21T04:06:46;12.02;;;4.97;;
32321;SDS011;61553;48.994;8.940;2024-02-21T04:09:14;15.63;;;5.15;;
32321;SDS011;61553;48.994;8.940;2024-02-21T04:11:40;17.65;;;4.25;;
32321;SDS011;61553;48.994;8.940;2024-02-21T04:14:06;16.52;;;4.55;;
32321;SDS011;61553;48.994;8.940;2024-02-21T04:16:32;9.43;;;3.55;;
32321;SDS011;61553;48.994;8.940;2024-02-21T04:18:57;13.55;;;3.97;;
32321;SDS011;61553;48.994;8.940;2024-02-21T04:21:23;9.88;;;3.10;;
32321;SDS011;61553;48.994;8.940;2024-02-21T04:23:49;17.90;;;6.32;;
32321;SDS011;61553;48.994;8.940;2024-02-21T04:26:15;14.27;;;4.95;;
32321;SDS011;61553;48.994;8.940;2024-02-21T04:28:40;10.20;;;4.50;;
32321;SDS011;61553;48.994;8.940;2024-02-21T04:31:06;15.23;;;6.35;;
32321;SDS011;61553;48.994;8.940;2024-02-21T04:33:32;59.83;;;26.55;;
32321;SDS011;61553;48.994;8.940;2024-02-21T04:35:57;29.65;;;13.27;;
32321;SDS011;61553;48.994;8.940;2024-02-21T04:38:24;23.58;;;9.60;;
32321;SDS011;61553;48.994;8.940;2024-02-21T04:40:50;14.82;;;5.88;;
32321;SDS011;61553;48.994;8.940;2024-02-21T04:43:15;15.52;;;6.40;;
32321;SDS011;61553;48.994;8.940;2024-02-21T04:45:41;14.45;;;5.70;;
32321;SDS011;61553;48.994;8.940;2024-02-21T04:48:07;15.55;;;5.82;;
32321;SDS011;61553;48.994;8.940;2024-02-21T04:50:32;11.38;;;4.82;;
32321;SDS011;61553;48.994;8.940;2024-02-21T04:52:58;11.63;;;4.55;;
32321;SDS011;61553;48.994;8.940;2024-02-21T04:55:23;8.80;;;4.57;;
32321;SDS011;61553;48.994;8.940;2024-02-21T04:57:49;7.20;;;3.58;;
32321;SDS011;61553;48.994;8.940;2024-02-21T05:00:15;9.48;;;3.60;;
32321;SDS011;61553;48.994;8.940;2024-02-21T05:02:40;11.13;;;3.80;;
32321;SDS011;61553;48.994;8.940;2024-02-21T05:05:06;7.90;;;3.40;;
32321;SDS011;61553;48.994;8.940;2024-02-21T05:07:32;7.93;;;3.30;;
32321;SDS011;61553;48.994;8.940;2024-02-21T05:09:59;11.00;;;3.33;;
32321;SDS011;61553;48.994;8.940;2024-02-21T05:12:25;10.13;;;3.80;;
32321;SDS011;61553;48.994;8.940;2024-02-21T05:14:51;22.08;;;10.48;;
32321;SDS011;61553;48.994;8.940;2024-02-21T05:17:16;22.27;;;11.60;;
32321;SDS011;61553;48.994;8.940;2024-02-21T05:19:42;13.30;;;7.80;;
32321;SDS011;61553;48.994;8.940;2024-02-21T05:22:07;12.27;;;5.80;;
32321;SDS011;61553;48.994;8.940;2024-02-21T05:24:33;11.93;;;5.30;;
32321;SDS011;61553;48.994;8.940;2024-02-21T05:26:58;6.78;;;3.45;;
32321;SDS011;61553;48.994;8.940;2024-02-21T05:29:24;8.45;;;4.28;;
32321;SDS011;61553;48.994;8.940;2024-02-21T05:34:18;9.23;;;3.88;;
32321;SDS011;61553;48.994;8.940;2024-02-21T05:36:45;11.00;;;5.35;;
32321;SDS011;61553;48.994;8.940;2024-02-21T05:39:11;12.52;;;5.68;;
32321;SDS011;61553;48.994;8.940;2024-02-21T05:41:37;8.48;;;3.92;;
32321;SDS011;61553;48.994;8.940;2024-02-21T05:44:02;14.43;;;6.10;;
32321;SDS011;61553;48.994;8.940;2024-02-21T05:46:28;19.30;;;10.13;;
32321;SDS011;61553;48.994;8.940;2024-02-21T05:48:54;16.77;;;7.70;;
32321;SDS011;61553;48.994;8.940;2024-02-21T05:51:19;12.57;;;6.22;;
32321;SDS011;61553;48.994;8.940;2024-02-21T05:53:46;12.85;;;5.53;;
32321;SDS011;61553;48.994;8.940;2024-02-21T05:56:12;11.20;;;5.18;;
32321;SDS011;61553;48.994;8.940;2024-02-21T05:58:39;11.63;;;4.50;;
32321;SDS011;61553;48.994;8.940;2024-02-21T06:01:05;14.75;;;6.90;;
32321;SDS011;61553;48.994;8.940;2024-02-21T06:03:32;13.98;;;6.80;;
32321;SDS011;61553;48.994;8.940;2024-02-21T06:05:58;12.35;;;5.53;;
32321;SDS011;61553;48.994;8.940;2024-02-21T06:08:24;17.60;;;9.23;;
32321;SDS011;61553;48.994;8.940;2024-02-21T06:10:50;20.80;;;10.68;;
32321;SDS011;61553;48.994;8.940;2024-02-21T06:13:19;33.45;;;14.18;;
32321;SDS011;61553;48.994;8.940;2024-02-21T06:15:51;27.42;;;13.75;;
32321;SDS011;61553;48.994;8.940;2024-02-21T06:18:17;47.92;;;19.48;;
32321;SDS011;61553;48.994;8.940;2024-02-21T06:20:43;53.55;;;23.45;;
32321;SDS011;61553;48.994;8.940;2024-02-21T06:23:08;30.95;;;14.35;;
32321;SDS011;61553;48.994;8.940;2024-02-21T06:25:34;16.98;;;7.22;;
32321;SDS011;61553;48.994;8.940;2024-02-21T06:28:00;21.75;;;9.05;;
32321;SDS011;61553;48.994;8.940;2024-02-21T06:30:26;18.17;;;7.75;;
32321;SDS011;61553;48.994;8.940;2024-02-21T06:32:52;18.75;;;9.32;;
32321;SDS011;61553;48.994;8.940;2024-02-21T06:35:17;16.98;;;8.55;;
32321;SDS011;61553;48.994;8.940;2024-02-21T06:37:44;24.38;;;9.10;;
32321;SDS011;61553;48.994;8.940;2024-02-21T06:40:15;35.88;;;15.13;;
32321;SDS011;61553;48.994;8.940;2024-02-21T06:42:41;26.02;;;11.18;;
32321;SDS011;61553;48.994;8.940;2024-02-21T06:45:07;21.52;;;11.98;;
32321;SDS011;61553;48.994;8.940;2024-02-21T06:47:32;15.30;;;9.07;;
32321;SDS011;61553;48.994;8.940;2024-02-21T06:49:58;17.30;;;9.30;;
32321;SDS011;61553;48.994;8.940;2024-02-21T06:52:23;18.98;;;9.85;;
32321;SDS011;61553;48.994;8.940;2024-02-21T06:54:50;18.17;;;9.00;;
32321;SDS011;61553;48.994;8.940;2024-02-21T06:57:16;16.75;;;8.90;;
32321;SDS011;61553;48.994;8.940;2024-02-21T06:59:41;19.75;;;8.98;;
32321;SDS011;61553;48.994;8.940;2024-02-21T07:02:07;18.83;;;7.93;;
32321;SDS011;61553;48.994;8.940;2024-02-21T07:04:33;24.23;;;10.10;;
32321;SDS011;61553;48.994;8.940;2024-02-21T07:06:59;23.75;;;9.55;;
32321;SDS011;61553;48.994;8.940;2024-02-21T07:09:25;20.50;;;8.68;;
32321;SDS011;61553;48.994;8.940;2024-02-21T07:11:50;14.40;;;8.18;;
32321;SDS011;61553;48.994;8.940;2024-02-21T07:14:17;17.38;;;7.53;;
32321;SDS011;61553;48.994;8.940;2024-02-21T07:16:43;14.27;;;6.65;;
32321;SDS011;61553;48.994;8.940;2024-02-21T07:19:09;17.05;;;8.02;;
32321;SDS011;61553;48.994;8.940;2024-02-21T07:21:37;42.17;;;18.55;;
32321;SDS011;61553;48.994;8.940;2024-02-21T07:24:06;45.67;;;22.67;;
32321;SDS011;61553;48.994;8.940;2024-02-21T07:26:32;49.58;;;22.15;;
32321;SDS011;61553;48.994;8.940;2024-02-21T07:28:58;104.95;;;37.80;;
32321;SDS011;61553;48.994;8.940;2024-02-21T07:31:24;16.17;;;8.43;;
32321;SDS011;61553;48.994;8.940;2024-02-21T07:33:49;19.08;;;6.55;;
32321;SDS011;61553;48.994;8.940;2024-02-21T07:36:15;17.13;;;6.82;;
32321;SDS011;61553;48.994;8.940;2024-02-21T07:38:49;13.45;;;4.80;;
32321;SDS011;61553;48.994;8.940;2024-02-21T07:41:15;11.30;;;5.50;;
32321;SDS011;61553;48.994;8.940;2024-02-21T07:43:41;13.27;;;4.90;;
32321;SDS011;61553;48.994;8.940;2024-02-21T07:46:06;16.10;;;4.65;;
32321;SDS011;61553;48.994;8.940;2024-02-21T07:48:32;9.13;;;4.25;;
32321;SDS011;61553;48.994;8.940;2024-02-21T07:50:57;10.30;;;4.93;;
32321;SDS011;61553;48.994;8.940;2024-02-21T07:53:23;11.00;;;4.30;;
32321;SDS011;61553;48.994;8.940;2024-02-21T07:55:49;8.75;;;3.90;;
32321;SDS011;61553;48.994;8.940;2024-02-21T07:58:14;10.07;;;4.88;;
32321;SDS011;61553;48.994;8.940;2024-02-21T08:00:40;10.25;;;5.22;;
32321;SDS011;61553;48.994;8.940;2024-02-21T08:03:05;10.98;;;4.93;;
32321;SDS011;61553;48.994;8.940;2024-02-21T08:05:33;10.50;;;4.32;;
32321;SDS011;61553;48.994;8.940;2024-02-21T08:07:59;12.00;;;4.20;;
32321;SDS011;61553;48.994;8.940;2024-02-21T08:10:25;14.02;;;6.50;;
32321;SDS011;61553;48.994;8.940;2024-02-21T08:12:51;10.57;;;4.50;;
32321;SDS011;61553;48.994;8.940;2024-02-21T08:15:16;13.90;;;4.30;;
32321;SDS011;61553;48.994;8.940;2024-02-21T08:17:42;9.23;;;4.43;;
32321;SDS011;61553;48.994;8.940;2024-02-21T08:20:08;11.43;;;4.63;;
32321;SDS011;61553;48.994;8.940;2024-02-21T08:22:36;12.73;;;4.40;;
32321;SDS011;61553;48.994;8.940;2024-02-21T08:25:03;11.85;;;4.70;;
32321;SDS011;61553;48.994;8.940;2024-02-21T08:27:30;12.80;;;5.75;;
32321;SDS011;61553;48.994;8.940;2024-02-21T08:29:56;15.95;;;5.68;;
32321;SDS011;61553;48.994;8.940;2024-02-21T08:32:21;12.05;;;6.53;;
32321;SDS011;61553;48.994;8.940;2024-02-21T08:34:47;13.48;;;5.78;;
32321;SDS011;61553;48.994;8.940;2024-02-21T08:37:13;12.60;;;4.93;;
32321;SDS011;61553;48.994;8.940;2024-02-21T08:39:38;14.93;;;6.78;;
32321;SDS011;61553;48.994;8.940;2024-02-21T08:42:04;14.07;;;7.85;;
32321;SDS011;61553;48.994;8.940;2024-02-21T08:44:30;15.43;;;5.82;;
32321;SDS011;61553;48.994;8.940;2024-02-21T08:46:56;12.45;;;5.65;;
32321;SDS011;61553;48.994;8.940;2024-02-21T08:49:21;12.38;;;5.18;;
32321;SDS011;61553;48.994;8.940;2024-02-21T08:51:47;10.10;;;4.75;;
32321;SDS011;61553;48.994;8.940;2024-02-21T08:54:13;9.40;;;2.90;;
32321;SDS011;61553;48.994;8.940;2024-02-21T08:56:38;7.75;;;2.95;;
32321;SDS011;61553;48.994;8.940;2024-02-21T08:59:04;8.15;;;2.38;;
32321;SDS011;61553;48.994;8.940;2024-02-21T09:01:30;9.60;;;2.58;;
32321;SDS011;61553;48.994;8.940;2024-02-21T09:03:55;8.10;;;2.22;;
32321;SDS011;61553;48.994;8.940;2024-02-21T09:06:22;6.05;;;1.98;;
32321;SDS011;61553;48.994;8.940;2024-02-21T09:08:48;5.80;;;2.15;;
32321;SDS011;61553;48.994;8.940;2024-02-21T09:11:13;12.70;;;3.30;;
32321;SDS011;61553;48.994;8.940;2024-02-21T09:13:40;11.65;;;4.25;;
32321;SDS011;61553;48.994;8.940;2024-02-21T09:16:05;10.93;;;3.60;;
32321;SDS011;61553;48.994;8.940;2024-02-21T09:18:31;7.63;;;2.60;;
32321;SDS011;61553;48.994;8.940;2024-02-21T09:20:57;8.82;;;2.63;;
32321;SDS011;61553;48.994;8.940;2024-02-21T09:23:25;4.22;;;2.08;;
32321;SDS011;61553;48.994;8.940;2024-02-21T09:25:52;6.95;;;2.35;;
32321;SDS011;61553;48.994;8.940;2024-02-21T09:28:17;12.15;;;3.38;;
32321;SDS011;61553;48.994;8.940;2024-02-21T09:30:43;6.80;;;2.63;;
32321;SDS011;61553;48.994;8.940;2024-02-21T09:33:09;8.00;;;2.30;;
32321;SDS011;61553;48.994;8.940;2024-02-21T09:35:35;10.02;;;2.75;;
32321;SDS011;61553;48.994;8.940;2024-02-21T09:38:00;7.80;;;2.80;;
32321;SDS011;61553;48.994;8.940;2024-02-21T09:40:26;7.57;;;2.55;;
32321;SDS011;61553;48.994;8.940;2024-02-21T09:43:02;8.93;;;3.35;;
32321;SDS011;61553;48.994;8.940;2024-02-21T09:45:34;4.90;;;2.50;;
32321;SDS011;61553;48.994;8.940;2024-02-21T09:50:41;8.25;;;2.78;;
32321;SDS011;61553;48.994;8.940;2024-02-21T09:53:09;7.63;;;2.13;;
32321;SDS011;61553;48.994;8.940;2024-02-21T09:55:38;11.57;;;2.65;;
32321;SDS011;61553;48.994;8.940;2024-02-21T09:58:06;8.35;;;2.40;;
32321;SDS011;61553;48.994;8.940;2024-02-21T10:00:33;7.78;;;2.20;;
32321;SDS011;61553;48.994;8.940;2024-02-21T10:03:00;10.50;;;3.35;;
32321;SDS011;61553;48.994;8.940;2024-02-21T10:05:25;9.20;;;2.75;;
32321;SDS011;61553;48.994;8.940;2024-02-21T10:07:52;7.97;;;2.78;;
32321;SDS011;61553;48.994;8.940;2024-02-21T10:10:19;6.03;;;2.05;;
32321;SDS011;61553;48.994;8.940;2024-02-21T10:12:50;8.50;;;2.22;;
32321;SDS011;61553;48.994;8.940;2024-02-21T10:15:19;6.50;;;2.08;;
32321;SDS011;61553;48.994;8.940;2024-02-21T10:17:47;10.18;;;2.00;;
32321;SDS011;61553;48.994;8.940;2024-02-21T10:20:13;8.65;;;2.33;;
32321;SDS011;61553;48.994;8.940;2024-02-21T10:22:40;8.75;;;2.55;;
32321;SDS011;61553;48.994;8.940;2024-02-21T10:25:09;6.72;;;2.80;;
32321;SDS011;61553;48.994;8.940;2024-02-21T10:27:38;11.52;;;2.10;;
32321;SDS011;61553;48.994;8.940;2024-02-21T10:30:06;7.15;;;2.05;;
32321;SDS011;61553;48.994;8.940;2024-02-21T10:32:33;7.63;;;2.33;;
32321;SDS011;61553;48.994;8.940;2024-02-21T10:35:02;5.88;;;2.22;;
32321;SDS011;61553;48.994;8.940;2024-02-21T10:37:31;8.85;;;2.35;;
32321;SDS011;61553;48.994;8.940;2024-02-21T10:39:57;5.82;;;2.65;;
32321;SDS011;61553;48.994;8.940;2024-02-21T10:42:22;13.77;;;2.40;;
32321;SDS011;61553;48.994;8.940;2024-02-21T10:44:51;8.48;;;2.30;;
32321;SDS011;61553;48.994;8.940;2024-02-21T10:47:18;6.72;;;1.98;;
32321;SDS011;61553;48.994;8.940;2024-02-21T10:49:49;10.02;;;2.15;;
32321;SDS011;61553;48.994;8.940;2024-02-21T10:54:56;10.88;;;2.20;;
32321;SDS011;61553;48.994;8.940;2024-02-21T10:57:28;7.38;;;1.88;;
32321;SDS011;61553;48.994;8.940;2024-02-21T10:59:56;7.13;;;2.33;;
32321;SDS011;61553;48.994;8.940;2024-02-21T11:02:24;7.82;;;2.53;;
32321;SDS011;61553;48.994;8.940;2024-02-21T11:04:51;9.63;;;2.35;;
32321;SDS011;61553;48.994;8.940;2024-02-21T11:07:19;12.63;;;3.10;;
32321;SDS011;61553;48.994;8.940;2024-02-21T11:09:52;8.65;;;2.47;;
32321;SDS011;61553;48.994;8.940;2024-02-21T11:12:22;9.38;;;2.25;;
32321;SDS011;61553;48.994;8.940;2024-02-21T11:14:48;7.68;;;2.00;;
32321;SDS011;61553;48.994;8.940;2024-02-21T11:17:14;12.55;;;3.25;;
32321;SDS011;61553;48.994;8.940;2024-02-21T11:19:42;8.23;;;2.20;;
32321;SDS011;61553;48.994;8.940;2024-02-21T11:22:14;5.68;;;1.90;;
32321;SDS011;61553;48.994;8.940;2024-02-21T11:24:44;5.15;;;1.65;;
32321;SDS011;61553;48.994;8.940;2024-02-21T11:29:40;9.88;;;1.98;;
32321;SDS011;61553;48.994;8.940;2024-02-21T11:32:19;6.13;;;2.33;;
32321;SDS011;61553;48.994;8.940;2024-02-21T11:35:01;11.57;;;2.20;;
32321;SDS011;61553;48.994;8.940;2024-02-21T11:37:32;10.10;;;1.90;;
32321;SDS011;61553;48.994;8.940;2024-02-21T11:39:58;8.55;;;1.80;;
32321;SDS011;61553;48.994;8.940;2024-02-21T11:42:25;11.13;;;3.20;;
32321;SDS011;61553;48.994;8.940;2024-02-21T11:44:51;5.57;;;2.15;;
32321;SDS011;61553;48.994;8.940;2024-02-21T11:47:18;6.03;;;1.67;;
32321;SDS011;61553;48.994;8.940;2024-02-21T11:49:47;21.33;;;7.43;;
32321;SDS011;61553;48.994;8.940;2024-02-21T11:52:15;14.77;;;5.78;;
32321;SDS011;61553;48.994;8.940;2024-02-21T11:54:43;8.88;;;2.28;;
32321;SDS011;61553;48.994;8.940;2024-02-21T11:57:10;6.30;;;2.55;;
32321;SDS011;61553;48.994;8.940;2024-02-21T11:59:39;7.32;;;2.10;;
32321;SDS011;61553;48.994;8.940;2024-02-21T12:02:05;7.10;;;1.73;;
32321;SDS011;61553;48.994;8.940;2024-02-21T12:04:32;9.25;;;2.10;;
32321;SDS011;61553;48.994;8.940;2024-02-21T12:06:58;6.00;;;2.10;;
32321;SDS011;61553;48.994;8.940;2024-02-21T12:09:25;5.10;;;1.63;;
32321;SDS011;61553;48.994;8.940;2024-02-21T12:11:58;7.90;;;1.80;;
32321;SDS011;61553;48.994;8.940;2024-02-21T12:14:24;8.93;;;1.83;;
32321;SDS011;61553;48.994;8.940;2024-02-21T12:16:51;7.47;;;1.83;;
32321;SDS011;61553;48.994;8.940;2024-02-21T12:19:16;9.43;;;2.42;;
32321;SDS011;61553;48.994;8.940;2024-02-21T12:21:42;9.02;;;1.98;;
32321;SDS011;61553;48.994;8.940;2024-02-21T12:24:13;6.07;;;2.00;;
32321;SDS011;61553;48.994;8.940;2024-02-21T12:26:52;8.63;;;2.83;;
32321;SDS011;61553;48.994;8.940;2024-02-21T12:29:19;7.25;;;1.90;;
32321;SDS011;61553;48.994;8.940;2024-02-21T12:31:45;10.27;;;2.55;;
32321;SDS011;61553;48.994;8.940;2024-02-21T12:34:11;15.90;;;2.80;;
32321;SDS011;61553;48.994;8.940;2024-02-21T12:36:43;7.63;;;2.35;;
32321;SDS011;61553;48.994;8.940;2024-02-21T12:39:11;12.95;;;3.72;;
32321;SDS011;61553;48.994;8.940;2024-02-21T12:41:38;6.05;;;2.58;;
32321;SDS011;61553;48.994;8.940;2024-02-21T12:44:04;13.07;;;4.38;;
32321;SDS011;61553;48.994;8.940;2024-02-21T12:46:33;14.35;;;3.15;;
32321;SDS011;61553;48.994;8.940;2024-02-21T12:49:00;11.35;;;3.50;;
32321;SDS011;61553;48.994;8.940;2024-02-21T12:51:26;7.88;;;1.92;;
32321;SDS011;61553;48.994;8.940;2024-02-21T12:53:51;9.02;;;1.83;;
32321;SDS011;61553;48.994;8.940;2024-02-21T12:56:17;6.47;;;1.85;;
32321;SDS011;61553;48.994;8.940;2024-02-21T12:58:43;10.85;;;2.10;;
32321;SDS011;61553;48.994;8.940;2024-02-21T13:01:09;6.22;;;1.92;;
32321;SDS011;61553;48.994;8.940;2024-02-21T13:03:35;7.95;;;2.08;;
32321;SDS011;61553;48.994;8.940;2024-02-21T13:06:01;6.72;;;1.80;;
32321;SDS011;61553;48.994;8.940;2024-02-21T13:08:26;7.07;;;1.83;;
32321;SDS011;61553;48.994;8.940;2024-02-21T13:10:52;10.73;;;2.03;;
32321;SDS011;61553;48.994;8.940;2024-02-21T13:13:18;8.02;;;1.85;;
32321;SDS011;61553;48.994;8.940;2024-02-21T13:15:43;8.88;;;2.10;;
32321;SDS011;61553;48.994;8.940;2024-02-21T13:18:09;6.55;;;2.10;;
32321;SDS011;61553;48.994;8.940;2024-02-21T13:20:36;6.40;;;1.85;;
32321;SDS011;61553;48.994;8.940;2024-02-21T13:23:01;8.18;;;1.55;;
32321;SDS011;61553;48.994;8.940;2024-02-21T13:25:27;5.57;;;1.73;;
32321;SDS011;61553;48.994;8.940;2024-02-21T13:27:53;7.38;;;2.17;;
32321;SDS011;61553;48.994;8.940;2024-02-21T13:30:19;7.80;;;2.10;;
32321;SDS011;61553;48.994;8.940;2024-02-21T13:32:44;8.32;;;1.67;;
32321;SDS011;61553;48.994;8.940;2024-02-21T13:35:13;7.78;;;1.80;;
32321;SDS011;61553;48.994;8.940;2024-02-21T13:37:40;6.63;;;1.83;;
32321;SDS011;61553;48.994;8.940;2024-02-21T13:40:06;8.95;;;2.50;;
32321;SDS011;61553;48.994;8.940;2024-02-21T13:42:34;14.10;;;4.70;;
32321;SDS011;61553;48.994;8.940;2024-02-21T13:45:00;15.82;;;2.85;;
32321;SDS011;61553;48.994;8.940;2024-02-21T13:47:26;10.55;;;2.20;;
32321;SDS011;61553;48.994;8.940;2024-02-21T13:49:51;7.82;;;1.70;;
32321;SDS011;61553;48.994;8.940;2024-02-21T13:52:17;5.78;;;1.40;;
32321;SDS011;61553;48.994;8.940;2024-02-21T13:54:46;4.15;;;1.70;;
32321;SDS011;61553;48.994;8.940;2024-02-21T13:57:11;12.30;;;2.13;;
32321;SDS011;61553;48.994;8.940;2024-02-21T13:59:37;4.88;;;1.42;;
32321;SDS011;61553;48.994;8.940;2024-02-21T14:02:04;8.98;;;1.95;;
32321;SDS011;61553;48.994;8.940;2024-02-21T14:04:32;9.75;;;1.88;;
32321;SDS011;61553;48.994;8.940;2024-02-21T14:06:58;7.65;;;1.70;;
32321;SDS011;61553;48.994;8.940;2024-02-21T14:09:23;4.50;;;1.65;;
32321;SDS011;61553;48.994;8.940;2024-02-21T14:11:49;5.20;;;1.58;;
32321;SDS011;61553;48.994;8.940;2024-02-21T14:14:14;5.45;;;1.38;;
32321;SDS011;61553;48.994;8.940;2024-02-21T14:16:40;9.20;;;2.15;;
32321;SDS011;61553;48.994;8.940;2024-02-21T14:19:06;5.07;;;1.52;;
32321;SDS011;61553;48.994;8.940;2024-02-21T14:21:33;5.80;;;1.50;;
32321;SDS011;61553;48.994;8.940;2024-02-21T14:24:02;5.28;;;1.48;;
32321;SDS011;61553;48.994;8.940;2024-02-21T14:26:28;6.93;;;1.63;;
32321;SDS011;61553;48.994;8.940;2024-02-21T14:28:56;5.97;;;1.55;;
32321;SDS011;61553;48.994;8.940;2024-02-21T14:31:22;5.07;;;1.60;;
32321;SDS011;61553;48.994;8.940;2024-02-21T14:33:47;7.72;;;2.30;;
32321;SDS011;61553;48.994;8.940;2024-02-21T14:36:13;7.85;;;1.90;;
32321;SDS011;61553;48.994;8.940;2024-02-21T14:38:40;10.65;;;2.63;;
32321;SDS011;61553;48.994;8.940;2024-02-21T14:41:07;6.82;;;2.00;;
32321;SDS011;61553;48.994;8.940;2024-02-21T14:43:32;4.47;;;1.75;;